Phoenix-Mesa-Gateway Airport
KIWA : now visible

Airfield :











YOU CAN JOIN US ON...

 
LOGIN :

Register | Disclaimer

   EN    FR    IT 

 









Legend :    VFR   Marginal VFR   IFR   Intensive IFR   Very Intensive IFR
Visi :
Ceiling :
>= 8 km
>= 3000ft
5 to 8 km
1000 to 3000 ft
1500m to 5 km
500 to 1000 ft
800 to 1500m
200 to 500 ft
< 800m
< 200 ft
Symbols :   Thunderstorms  Fog  Heavy snow  Heavy precipitations  Wind > 20 kt






- Airport Elevation : 1382 ft


KIWA - Phoenix-Mesa-Gateway

CURRENT METAR :
  • 071648Z 08004KT 10SM CLR 27/12 A3012

EXPIRED METARs :
  • 071548Z 00000KT 10SM CLR 25/13 A3012
  • 071448Z 00000KT 10SM CLR 22/15 A3011

TAF KIWA
Valid from the 07 at 12:00 until the 08 at 12:00 UTC


071120Z 0712/0812 10007KT P6SM FEW120 SCT250
TEMPO 0716/0719 11011G19KT
FM080100 12012G23KT P6SM VCSH SCT100 BKN150 BKN250
FM080300 13009KT P6SM FEW100 BKN150 BKN250
KZAB FIR / North America



MET'MAP, your aeronautical weather chart ! - Copyright ORBIFLY December 2007 - Disclaimer

ORBIFLY MET'MAP TEAM :

Programming & Development : Alexandra Zaïnal
Original concept : Baudouin d'Aumeries
Technical & hardware support : Manuel Goepfert
Assistance : Marc-Olivier Méhu




SOURCES & CREDITS :

   NOAA       Earth
Advisory